RPB7264 SKBO-SKBG
Flight info
| Callsign | RPB7264 |
|---|---|
| Flight time | 0h 32m |
| Altitude | 23000 |
| Route | OSUSU4R KOVBU A567 OPROG OPROG1B |
| Aircraft | B738/M-SDE2E3FGHIRWXY/LB1 |
Departure
| Time | 2026-04-30 08:37 |
|---|---|
| Airport | El Dorado International Airport (SKBO) |
Arrival
| Time | 2026-04-30 09:09 |
|---|---|
| Airport | Palonegro Airport (SKBG) |
| Time | Latitude | Longitude | Altitude | Speed | Heading |
|---|---|---|---|---|---|
| 2026-04-30 08:24 | 4.70117 | -74.14310 | 8372 ft | 0 kts | 216° |
| 2026-04-30 08:25 | 4.70122 | -74.14306 | 8372 ft | 2 kts | 234° |
| 2026-04-30 08:25 | 4.70128 | -74.14296 | 8372 ft | 0 kts | 210° |
| 2026-04-30 08:26 | 4.70141 | -74.14294 | 8371 ft | 2 kts | 171° |
| 2026-04-30 08:26 | 4.70155 | -74.14298 | 8371 ft | 2 kts | 154° |
| 2026-04-30 08:26 | 4.70168 | -74.14307 | 8371 ft | 2 kts | 136° |
| 2026-04-30 08:26 | 4.70176 | -74.14317 | 8371 ft | 0 kts | 123° |
| 2026-04-30 08:27 | 4.70177 | -74.14319 | 8371 ft | 0 kts | 124° |
| 2026-04-30 08:29 | 4.70164 | -74.14299 | 8371 ft | 8 kts | 122° |
| 2026-04-30 08:29 | 4.70174 | -74.14236 | 8371 ft | 9 kts | 46° |
| 2026-04-30 08:29 | 4.70256 | -74.14226 | 8369 ft | 16 kts | 320° |
| 2026-04-30 08:29 | 4.70321 | -74.14310 | 8368 ft | 14 kts | 304° |
| 2026-04-30 08:30 | 4.70389 | -74.14391 | 8368 ft | 17 kts | 317° |
| 2026-04-30 08:30 | 4.70488 | -74.14420 | 8368 ft | 16 kts | 313° |
| 2026-04-30 08:30 | 4.70588 | -74.14548 | 8367 ft | 27 kts | 309° |
| 2026-04-30 08:30 | 4.70692 | -74.14683 | 8367 ft | 20 kts | 306° |
| 2026-04-30 08:31 | 4.70787 | -74.14811 | 8367 ft | 25 kts | 307° |
| 2026-04-30 08:31 | 4.70887 | -74.14942 | 8367 ft | 22 kts | 307° |
| 2026-04-30 08:31 | 4.70984 | -74.15069 | 8367 ft | 24 kts | 308° |
| 2026-04-30 08:31 | 4.71073 | -74.15183 | 8365 ft | 17 kts | 312° |
| 2026-04-30 08:32 | 4.71163 | -74.15237 | 8362 ft | 13 kts | 316° |
| 2026-04-30 08:32 | 4.71202 | -74.15359 | 8359 ft | 19 kts | 268° |
| 2026-04-30 08:32 | 4.71195 | -74.15391 | 8359 ft | 21 kts | 248° |
| 2026-04-30 08:33 | 4.71123 | -74.15464 | 8359 ft | 19 kts | 217° |
| 2026-04-30 08:33 | 4.71024 | -74.15535 | 8359 ft | 19 kts | 216° |
| 2026-04-30 08:33 | 4.70881 | -74.15642 | 8359 ft | 32 kts | 218° |
| 2026-04-30 08:33 | 4.70701 | -74.15781 | 8360 ft | 32 kts | 217° |
| 2026-04-30 08:34 | 4.70553 | -74.15891 | 8361 ft | 16 kts | 261° |
| 2026-04-30 08:34 | 4.70636 | -74.16016 | 8358 ft | 28 kts | 308° |
| 2026-04-30 08:34 | 4.70754 | -74.16164 | 8355 ft | 23 kts | 308° |
| 2026-04-30 08:34 | 4.70849 | -74.16291 | 8355 ft | 26 kts | 307° |
| 2026-04-30 08:35 | 4.70955 | -74.16432 | 8355 ft | 21 kts | 307° |
| 2026-04-30 08:35 | 4.71047 | -74.16553 | 8354 ft | 23 kts | 308° |
| 2026-04-30 08:35 | 4.71137 | -74.16672 | 8354 ft | 22 kts | 306° |
| 2026-04-30 08:35 | 4.71188 | -74.16795 | 8354 ft | 17 kts | 241° |
| 2026-04-30 08:36 | 4.71104 | -74.16865 | 8354 ft | 14 kts | 216° |
| 2026-04-30 08:36 | 4.70999 | -74.16850 | 8354 ft | 22 kts | 129° |
| 2026-04-30 08:36 | 4.70810 | -74.16599 | 8351 ft | 76 kts | 126° |
| 2026-04-30 08:36 | 4.70363 | -74.16007 | 8359 ft | 132 kts | 127° |
| 2026-04-30 08:37 | 4.69712 | -74.15147 | 8368 ft | 175 kts | 127° |
| 2026-04-30 08:37 | 4.68946 | -74.14163 | 8760 ft | 180 kts | 127° |
| 2026-04-30 08:37 | 4.68154 | -74.13192 | 9308 ft | 186 kts | 129° |
| 2026-04-30 08:37 | 4.67394 | -74.12131 | 9895 ft | 191 kts | 113° |
| 2026-04-30 08:38 | 4.67124 | -74.10873 | 10562 ft | 184 kts | 86° |
| 2026-04-30 08:38 | 4.67460 | -74.09653 | 11033 ft | 188 kts | 59° |
| 2026-04-30 08:38 | 4.68385 | -74.08689 | 11410 ft | 199 kts | 32° |
| 2026-04-30 08:38 | 4.69692 | -74.08246 | 11986 ft | 199 kts | 12° |
| 2026-04-30 08:39 | 4.71075 | -74.08045 | 12441 ft | 204 kts | 3° |
| 2026-04-30 08:39 | 4.72478 | -74.08140 | 12805 ft | 205 kts | 1° |
| 2026-04-30 08:39 | 4.73943 | -74.07967 | 13183 ft | 215 kts | 17° |
| 2026-04-30 08:39 | 4.75420 | -74.07524 | 13549 ft | 227 kts | 19° |
| 2026-04-30 08:40 | 4.76961 | -74.07038 | 13889 ft | 240 kts | 20° |
| 2026-04-30 08:40 | 4.78610 | -74.06507 | 14199 ft | 254 kts | 20° |
| 2026-04-30 08:40 | 4.80293 | -74.05950 | 14559 ft | 253 kts | 21° |
| 2026-04-30 08:40 | 4.81967 | -74.05374 | 14881 ft | 254 kts | 21° |
| 2026-04-30 08:41 | 4.83710 | -74.04784 | 15028 ft | 278 kts | 21° |
| 2026-04-30 08:41 | 4.85599 | -74.04144 | 15329 ft | 295 kts | 21° |
| 2026-04-30 08:41 | 4.87664 | -74.03447 | 15412 ft | 321 kts | 20° |
| 2026-04-30 08:41 | 4.89852 | -74.02712 | 15553 ft | 343 kts | 20° |
| 2026-04-30 08:42 | 4.92204 | -74.01921 | 15628 ft | 365 kts | 20° |
| 2026-04-30 08:42 | 4.94649 | -74.01091 | 16051 ft | 373 kts | 20° |
| 2026-04-30 08:42 | 4.97133 | -74.00241 | 16529 ft | 379 kts | 20° |
| 2026-04-30 08:42 | 4.99620 | -73.99397 | 16996 ft | 384 kts | 20° |
| 2026-04-30 08:43 | 5.02218 | -73.98524 | 17121 ft | 390 kts | 19° |
| 2026-04-30 08:43 | 5.04818 | -73.97821 | 17146 ft | 385 kts | 15° |
| 2026-04-30 08:43 | 5.07413 | -73.97231 | 17155 ft | 383 kts | 15° |
| 2026-04-30 08:43 | 5.10030 | -73.96609 | 17151 ft | 383 kts | 16° |
| 2026-04-30 08:44 | 5.12629 | -73.95963 | 17152 ft | 384 kts | 16° |
| 2026-04-30 08:44 | 5.15250 | -73.95308 | 17153 ft | 385 kts | 16° |
| 2026-04-30 08:44 | 5.17845 | -73.94656 | 17178 ft | 384 kts | 16° |
| 2026-04-30 08:44 | 5.20443 | -73.94011 | 17195 ft | 385 kts | 16° |
| 2026-04-30 08:45 | 5.23079 | -73.93359 | 17207 ft | 386 kts | 15° |
| 2026-04-30 08:45 | 5.25684 | -73.92714 | 17201 ft | 386 kts | 16° |
| 2026-04-30 08:45 | 5.28336 | -73.92051 | 17458 ft | 393 kts | 16° |
| 2026-04-30 08:45 | 5.30967 | -73.91394 | 18043 ft | 392 kts | 16° |
| 2026-04-30 08:46 | 5.33622 | -73.90730 | 18527 ft | 395 kts | 16° |
| 2026-04-30 08:46 | 5.36306 | -73.90065 | 19030 ft | 397 kts | 15° |
| 2026-04-30 08:46 | 5.39007 | -73.89401 | 19497 ft | 399 kts | 15° |
| 2026-04-30 08:46 | 5.41731 | -73.88733 | 19949 ft | 402 kts | 16° |
| 2026-04-30 08:47 | 5.44457 | -73.88065 | 20378 ft | 405 kts | 16° |
| 2026-04-30 08:47 | 5.47195 | -73.87383 | 20811 ft | 408 kts | 16° |
| 2026-04-30 08:47 | 5.49976 | -73.86649 | 21216 ft | 411 kts | 18° |
| 2026-04-30 08:47 | 5.52702 | -73.85726 | 21318 ft | 418 kts | 23° |
| 2026-04-30 08:48 | 5.55346 | -73.84491 | 21519 ft | 419 kts | 30° |
| 2026-04-30 08:48 | 5.57898 | -73.83073 | 22117 ft | 415 kts | 31° |
| 2026-04-30 08:48 | 5.60416 | -73.81673 | 22583 ft | 416 kts | 31° |
| 2026-04-30 08:48 | 5.62962 | -73.80278 | 23165 ft | 412 kts | 30° |
| 2026-04-30 08:49 | 5.65492 | -73.78883 | 23336 ft | 415 kts | 31° |
| 2026-04-30 08:49 | 5.68013 | -73.77474 | 23033 ft | 417 kts | 31° |
| 2026-04-30 08:49 | 5.70539 | -73.76052 | 22732 ft | 407 kts | 31° |
| 2026-04-30 08:49 | 5.72984 | -73.74675 | 22440 ft | 400 kts | 31° |
| 2026-04-30 08:50 | 5.75409 | -73.73300 | 22143 ft | 399 kts | 32° |
| 2026-04-30 08:50 | 5.77815 | -73.71935 | 21857 ft | 400 kts | 32° |
| 2026-04-30 08:50 | 5.80240 | -73.70560 | 21567 ft | 400 kts | 32° |
| 2026-04-30 08:50 | 5.82684 | -73.69183 | 21293 ft | 398 kts | 31° |
| 2026-04-30 08:51 | 5.85120 | -73.67818 | 21016 ft | 396 kts | 31° |
| 2026-04-30 08:51 | 5.87510 | -73.66482 | 20744 ft | 393 kts | 31° |
| 2026-04-30 08:51 | 5.89910 | -73.65137 | 20467 ft | 392 kts | 31° |
| 2026-04-30 08:51 | 5.92293 | -73.63790 | 20185 ft | 390 kts | 32° |
| 2026-04-30 08:52 | 5.94637 | -73.62452 | 19915 ft | 389 kts | 32° |
| 2026-04-30 08:52 | 5.97025 | -73.61089 | 19632 ft | 388 kts | 32° |
| 2026-04-30 08:52 | 5.99370 | -73.59753 | 19351 ft | 387 kts | 32° |
| 2026-04-30 08:52 | 6.01691 | -73.58437 | 19075 ft | 385 kts | 32° |
| 2026-04-30 08:53 | 6.04046 | -73.57104 | 18791 ft | 383 kts | 31° |
| 2026-04-30 08:53 | 6.06365 | -73.55788 | 18512 ft | 381 kts | 31° |
| 2026-04-30 08:53 | 6.08678 | -73.54473 | 18268 ft | 378 kts | 31° |
| 2026-04-30 08:53 | 6.10952 | -73.53184 | 18048 ft | 376 kts | 31° |
| 2026-04-30 08:54 | 6.13265 | -73.51868 | 17821 ft | 376 kts | 32° |
| 2026-04-30 08:54 | 6.15548 | -73.50569 | 17600 ft | 376 kts | 31° |
| 2026-04-30 08:54 | 6.17822 | -73.49280 | 17380 ft | 375 kts | 31° |
| 2026-04-30 08:54 | 6.20077 | -73.47984 | 17158 ft | 373 kts | 31° |
| 2026-04-30 08:55 | 6.22340 | -73.46706 | 16928 ft | 372 kts | 31° |
| 2026-04-30 08:55 | 6.24618 | -73.45431 | 16704 ft | 369 kts | 31° |
| 2026-04-30 08:55 | 6.26826 | -73.44181 | 16461 ft | 358 kts | 31° |
| 2026-04-30 08:55 | 6.28974 | -73.42960 | 16187 ft | 349 kts | 31° |
| 2026-04-30 08:56 | 6.31054 | -73.41774 | 15913 ft | 340 kts | 31° |
| 2026-04-30 08:56 | 6.33106 | -73.40607 | 15615 ft | 333 kts | 31° |
| 2026-04-30 08:56 | 6.35101 | -73.39477 | 15318 ft | 330 kts | 31° |
| 2026-04-30 08:56 | 6.37098 | -73.38336 | 15033 ft | 329 kts | 31° |
| 2026-04-30 08:57 | 6.39095 | -73.37194 | 14749 ft | 329 kts | 31° |
| 2026-04-30 08:57 | 6.41109 | -73.36060 | 14444 ft | 328 kts | 31° |
| 2026-04-30 08:57 | 6.43094 | -73.34950 | 14144 ft | 325 kts | 31° |
| 2026-04-30 08:57 | 6.45060 | -73.33837 | 13865 ft | 322 kts | 31° |
| 2026-04-30 08:58 | 6.47014 | -73.32716 | 13571 ft | 320 kts | 31° |
| 2026-04-30 08:58 | 6.48962 | -73.31603 | 13302 ft | 319 kts | 31° |
| 2026-04-30 08:58 | 6.50888 | -73.30506 | 13050 ft | 319 kts | 31° |
| 2026-04-30 08:58 | 6.52840 | -73.29397 | 12801 ft | 319 kts | 31° |
| 2026-04-30 08:59 | 6.54774 | -73.28298 | 12542 ft | 318 kts | 31° |
| 2026-04-30 08:59 | 6.56691 | -73.27218 | 12261 ft | 316 kts | 31° |
| 2026-04-30 08:59 | 6.58630 | -73.26124 | 11987 ft | 315 kts | 31° |
| 2026-04-30 08:59 | 6.60535 | -73.25041 | 11712 ft | 313 kts | 31° |
| 2026-04-30 09:00 | 6.62441 | -73.23956 | 11460 ft | 311 kts | 31° |
| 2026-04-30 09:00 | 6.64324 | -73.22883 | 11196 ft | 310 kts | 31° |
| 2026-04-30 09:00 | 6.66190 | -73.21815 | 10934 ft | 309 kts | 30° |
| 2026-04-30 09:00 | 6.68057 | -73.20752 | 10700 ft | 303 kts | 31° |
| 2026-04-30 09:01 | 6.69851 | -73.19735 | 10461 ft | 286 kts | 30° |
| 2026-04-30 09:01 | 6.71527 | -73.18782 | 10243 ft | 272 kts | 30° |
| 2026-04-30 09:01 | 6.73145 | -73.17860 | 10008 ft | 260 kts | 30° |
| 2026-04-30 09:01 | 6.74699 | -73.16970 | 9773 ft | 250 kts | 30° |
| 2026-04-30 09:02 | 6.77686 | -73.15290 | 9343 ft | 241 kts | 31° |
| 2026-04-30 09:02 | 6.79119 | -73.14476 | 9104 ft | 233 kts | 31° |
| 2026-04-30 09:02 | 6.80518 | -73.13672 | 8883 ft | 224 kts | 31° |
| 2026-04-30 09:03 | 6.81862 | -73.12908 | 8677 ft | 220 kts | 31° |
| 2026-04-30 09:03 | 6.83192 | -73.12160 | 8468 ft | 218 kts | 31° |
| 2026-04-30 09:03 | 6.84509 | -73.11408 | 8269 ft | 216 kts | 31° |
| 2026-04-30 09:03 | 6.85820 | -73.10652 | 8042 ft | 215 kts | 31° |
| 2026-04-30 09:04 | 6.87127 | -73.09912 | 7821 ft | 214 kts | 30° |
| 2026-04-30 09:04 | 6.88515 | -73.09393 | 7592 ft | 216 kts | 4° |
| 2026-04-30 09:04 | 6.89965 | -73.09727 | 7423 ft | 217 kts | 334° |
| 2026-04-30 09:04 | 6.91355 | -73.10387 | 7243 ft | 218 kts | 340° |
| 2026-04-30 09:05 | 6.92776 | -73.10934 | 7054 ft | 216 kts | 340° |
| 2026-04-30 09:05 | 6.94164 | -73.11485 | 6889 ft | 214 kts | 340° |
| 2026-04-30 09:05 | 6.95528 | -73.12041 | 6726 ft | 207 kts | 339° |
| 2026-04-30 09:05 | 6.96871 | -73.12488 | 6571 ft | 200 kts | 344° |
| 2026-04-30 09:06 | 6.98147 | -73.13005 | 6448 ft | 190 kts | 339° |
| 2026-04-30 09:06 | 6.99353 | -73.13492 | 6288 ft | 182 kts | 341° |
| 2026-04-30 09:06 | 7.00530 | -73.13950 | 6105 ft | 178 kts | 340° |
| 2026-04-30 09:06 | 7.01708 | -73.14387 | 5891 ft | 180 kts | 342° |
| 2026-04-30 09:07 | 7.02874 | -73.14824 | 5652 ft | 175 kts | 341° |
| 2026-04-30 09:07 | 7.03983 | -73.15235 | 5430 ft | 161 kts | 342° |
| 2026-04-30 09:07 | 7.04997 | -73.15620 | 5245 ft | 155 kts | 341° |
| 2026-04-30 09:07 | 7.06004 | -73.15992 | 5028 ft | 151 kts | 342° |
| 2026-04-30 09:08 | 7.06989 | -73.16360 | 4841 ft | 150 kts | 341° |
| 2026-04-30 09:08 | 7.07978 | -73.16725 | 4646 ft | 147 kts | 342° |
| 2026-04-30 09:08 | 7.08933 | -73.17091 | 4435 ft | 145 kts | 342° |
| 2026-04-30 09:08 | 7.09914 | -73.17454 | 4310 ft | 151 kts | 341° |
| 2026-04-30 09:09 | 7.10907 | -73.17831 | 4059 ft | 149 kts | 342° |
| 2026-04-30 09:09 | 7.11876 | -73.18193 | 3850 ft | 148 kts | 342° |
| 2026-04-30 09:09 | 7.12723 | -73.18504 | 3901 ft | 97 kts | 340° |
| 2026-04-30 09:09 | 7.13137 | -73.18657 | 3902 ft | 34 kts | 344° |
| 2026-04-30 09:10 | 7.13175 | -73.18585 | 3905 ft | 15 kts | 125° |
| 2026-04-30 09:10 | 7.13102 | -73.18543 | 3907 ft | 14 kts | 156° |